PAQT

Nuiqsut Airport

Nuiqsut, Alaska, USA
PAQT 261123Z 2612/2712 17005KT P6SM SKC FM270000 17006KT P6SM SCT100
Issued Valid From Valid To
Apr-26 @ 11:23 UTC
(2 hours ago)
Apr-26 @ 12:00 UTC
(2 hours ago)
Apr-27 @ 12:00 UTC
(in 22 hours)
Apr-26 @ 12:00 to Apr-27 @ 00:00
PAQT 261123Z 2612/2712 17005KT P6SM SKC
Wind Visibility Clouds
170° at 5 knots Greater than 6 miles
  • Clear skies
From Apr-27 @ 00:00 to Apr-27 @ 12:00
FM270000 17006KT P6SM SCT100
Wind Visibility Clouds
170° at 6 knots Greater than 6 miles
  • Scattered at 10,000' AGL
PAQT 261123Z 2612/2712 17005KT P6SM SKC FM270000 17006KT P6SM SCT100
Issued Apr-26 @ 11:23 UTC
(2 hours ago)
Valid From Apr-26 @ 12:00 UTC
(2 hours ago)
Valid To Apr-27 @ 12:00 UTC
(in 22 hours)
Apr-26 @ 12:00 - Apr-27 @ 00:00
Wind Visibility
170° at 5 knots Greater than 6 miles
Clouds
  • Clear skies
From Apr-27 @ 00:00 - Apr-27 @ 12:00
Wind Visibility
170° at 6 knots Greater than 6 miles
Clouds
  • Scattered at 10,000' AGL